sensor_id;sensor_type;location;lat;lon;timestamp;pressure;altitude;pressure_sealevel;temperature;humidity
70254;BME280;57649;42.968;1.608;2023-01-28T00:02:01;97586.53;;;1.54;100.00
70254;BME280;57649;42.968;1.608;2023-01-28T00:04:26;97589.63;;;1.61;100.00
70254;BME280;57649;42.968;1.608;2023-01-28T00:06:52;97591.91;;;1.66;100.00
70254;BME280;57649;42.968;1.608;2023-01-28T00:09:18;97577.16;;;1.63;100.00
70254;BME280;57649;42.968;1.608;2023-01-28T00:11:43;97590.09;;;1.66;100.00
70254;BME280;57649;42.968;1.608;2023-01-28T00:14:10;97592.25;;;1.61;100.00
70254;BME280;57649;42.968;1.608;2023-01-28T00:16:36;97579.47;;;1.55;100.00
70254;BME280;57649;42.968;1.608;2023-01-28T00:19:02;97573.25;;;1.56;100.00
70254;BME280;57649;42.968;1.608;2023-01-28T00:21:27;97571.56;;;1.55;100.00
70254;BME280;57649;42.968;1.608;2023-01-28T00:23:54;97577.00;;;1.65;99.22
70254;BME280;57649;42.968;1.608;2023-01-28T00:26:20;97573.47;;;1.53;99.31
70254;BME280;57649;42.968;1.608;2023-01-28T00:28:46;97576.63;;;1.58;100.00
70254;BME280;57649;42.968;1.608;2023-01-28T00:31:23;97572.19;;;1.59;100.00
70254;BME280;57649;42.968;1.608;2023-01-28T00:33:49;97576.84;;;1.55;100.00
70254;BME280;57649;42.968;1.608;2023-01-28T00:36:16;97562.81;;;1.54;100.00
70254;BME280;57649;42.968;1.608;2023-01-28T00:38:42;97569.88;;;1.54;100.00
70254;BME280;57649;42.968;1.608;2023-01-28T00:41:13;97561.41;;;1.62;97.42
70254;BME280;57649;42.968;1.608;2023-01-28T00:43:39;97563.44;;;1.58;98.43
70254;BME280;57649;42.968;1.608;2023-01-28T00:46:06;97555.19;;;1.50;98.40
70254;BME280;57649;42.968;1.608;2023-01-28T00:48:33;97566.06;;;1.58;98.02
70254;BME280;57649;42.968;1.608;2023-01-28T00:50:58;97569.66;;;1.57;99.25
70254;BME280;57649;42.968;1.608;2023-01-28T00:53:24;97569.22;;;1.63;98.68
70254;BME280;57649;42.968;1.608;2023-01-28T00:55:50;97559.34;;;1.54;99.37
70254;BME280;57649;42.968;1.608;2023-01-28T00:58:15;97558.88;;;1.60;97.23
70254;BME280;57649;42.968;1.608;2023-01-28T01:00:41;97558.22;;;1.69;96.94
70254;BME280;57649;42.968;1.608;2023-01-28T01:03:06;97559.09;;;1.57;98.42
70254;BME280;57649;42.968;1.608;2023-01-28T01:05:32;97557.53;;;1.54;97.03
70254;BME280;57649;42.968;1.608;2023-01-28T01:07:58;97556.44;;;1.57;96.04
70254;BME280;57649;42.968;1.608;2023-01-28T01:10:24;97558.34;;;1.55;96.07
70254;BME280;57649;42.968;1.608;2023-01-28T01:12:50;97573.25;;;1.56;97.18
70254;BME280;57649;42.968;1.608;2023-01-28T01:15:16;97567.25;;;1.54;96.62
70254;BME280;57649;42.968;1.608;2023-01-28T01:17:45;97563.00;;;1.51;96.63
70254;BME280;57649;42.968;1.608;2023-01-28T01:20:13;97556.44;;;1.57;98.05
70254;BME280;57649;42.968;1.608;2023-01-28T01:22:39;97560.44;;;1.63;96.52
70254;BME280;57649;42.968;1.608;2023-01-28T01:25:06;97559.72;;;1.61;96.52
70254;BME280;57649;42.968;1.608;2023-01-28T01:27:32;97560.13;;;1.67;97.16
70254;BME280;57649;42.968;1.608;2023-01-28T01:29:58;97548.84;;;1.65;97.40
70254;BME280;57649;42.968;1.608;2023-01-28T01:32:24;97567.09;;;1.68;96.80
70254;BME280;57649;42.968;1.608;2023-01-28T01:34:53;97553.41;;;1.63;96.76
70254;BME280;57649;42.968;1.608;2023-01-28T01:37:18;97559.72;;;1.61;97.51
70254;BME280;57649;42.968;1.608;2023-01-28T01:39:44;97555.69;;;1.68;97.98
70254;BME280;57649;42.968;1.608;2023-01-28T01:42:11;97559.63;;;1.62;98.76
70254;BME280;57649;42.968;1.608;2023-01-28T01:50:31;97569.53;;;1.59;98.15
70254;BME280;57649;42.968;1.608;2023-01-28T01:53:01;97557.84;;;1.50;98.69
70254;BME280;57649;42.968;1.608;2023-01-28T01:55:30;97563.00;;;1.51;97.88
70254;BME280;57649;42.968;1.608;2023-01-28T01:57:59;97565.84;;;1.48;99.17
70254;BME280;57649;42.968;1.608;2023-01-28T02:00:26;97568.38;;;1.50;98.74
70254;BME280;57649;42.968;1.608;2023-01-28T02:02:52;97558.38;;;1.42;99.30
70254;BME280;57649;42.968;1.608;2023-01-28T02:05:20;97576.41;;;1.48;97.84
70254;BME280;57649;42.968;1.608;2023-01-28T02:07:47;97567.44;;;1.51;96.96
70254;BME280;57649;42.968;1.608;2023-01-28T02:10:15;97574.09;;;1.44;99.19
70254;BME280;57649;42.968;1.608;2023-01-28T02:12:44;97572.09;;;1.34;98.33
70254;BME280;57649;42.968;1.608;2023-01-28T02:15:17;97580.03;;;1.34;98.76
70254;BME280;57649;42.968;1.608;2023-01-28T02:17:44;97569.91;;;1.28;99.64
70254;BME280;57649;42.968;1.608;2023-01-28T02:20:12;97575.69;;;1.33;99.29
70254;BME280;57649;42.968;1.608;2023-01-28T02:31:26;97580.56;;;1.27;100.00
70254;BME280;57649;42.968;1.608;2023-01-28T02:39:46;97589.09;;;1.30;100.00
70254;BME280;57649;42.968;1.608;2023-01-28T02:42:20;97585.28;;;1.34;100.00
70254;BME280;57649;42.968;1.608;2023-01-28T02:44:47;97579.59;;;1.28;100.00
70254;BME280;57649;42.968;1.608;2023-01-28T02:47:14;97589.09;;;1.30;98.95
70254;BME280;57649;42.968;1.608;2023-01-28T02:50:01;97591.41;;;1.22;100.00
70254;BME280;57649;42.968;1.608;2023-01-28T02:52:48;97585.09;;;1.25;100.00
70254;BME280;57649;42.968;1.608;2023-01-28T03:00:43;97584.31;;;1.35;100.00
70254;BME280;57649;42.968;1.608;2023-01-28T03:05:57;97579.69;;;1.26;100.00
70254;BME280;57649;42.968;1.608;2023-01-28T03:11:31;97572.75;;;1.25;99.91
70254;BME280;57649;42.968;1.608;2023-01-28T03:14:17;97588.22;;;1.30;99.66
70254;BME280;57649;42.968;1.608;2023-01-28T03:17:04;97582.22;;;1.28;99.54
70254;BME280;57649;42.968;1.608;2023-01-28T03:19:48;97582.47;;;1.25;98.11
70254;BME280;57649;42.968;1.608;2023-01-28T03:22:36;97570.31;;;1.22;97.24
70254;BME280;57649;42.968;1.608;2023-01-28T03:25:22;97589.09;;;1.30;98.81
70254;BME280;57649;42.968;1.608;2023-01-28T03:28:11;97588.03;;;1.20;99.24
70254;BME280;57649;42.968;1.608;2023-01-28T03:31:12;97579.91;;;1.23;98.66
70254;BME280;57649;42.968;1.608;2023-01-28T03:33:58;97584.97;;;1.26;98.49
70254;BME280;57649;42.968;1.608;2023-01-28T03:36:44;97581.81;;;1.21;99.55
70254;BME280;57649;42.968;1.608;2023-01-28T03:39:28;97584.13;;;1.26;99.83
70254;BME280;57649;42.968;1.608;2023-01-28T03:44:32;97592.03;;;1.26;99.97
70254;BME280;57649;42.968;1.608;2023-01-28T03:47:16;97596.69;;;1.22;98.78
70254;BME280;57649;42.968;1.608;2023-01-28T03:49:44;97586.38;;;1.19;98.82
70254;BME280;57649;42.968;1.608;2023-01-28T03:52:15;97595.41;;;1.15;99.23
70254;BME280;57649;42.968;1.608;2023-01-28T03:54:40;97606.28;;;1.23;99.08
70254;BME280;57649;42.968;1.608;2023-01-28T03:57:06;97601.22;;;1.20;100.00
70254;BME280;57649;42.968;1.608;2023-01-28T03:59:32;97595.84;;;1.09;98.01
70254;BME280;57649;42.968;1.608;2023-01-28T04:01:58;97600.03;;;1.11;97.31
70254;BME280;57649;42.968;1.608;2023-01-28T04:04:23;97611.66;;;1.22;97.98
70254;BME280;57649;42.968;1.608;2023-01-28T04:06:51;97602.38;;;1.16;97.97
70254;BME280;57649;42.968;1.608;2023-01-28T04:09:16;97606.06;;;1.13;98.09
70254;BME280;57649;42.968;1.608;2023-01-28T04:11:42;97604.47;;;1.11;97.57
70254;BME280;57649;42.968;1.608;2023-01-28T04:14:07;97599.31;;;1.09;97.83
70254;BME280;57649;42.968;1.608;2023-01-28T04:16:33;97605.31;;;1.11;97.79
70254;BME280;57649;42.968;1.608;2023-01-28T04:18:58;97607.13;;;1.11;97.75
70254;BME280;57649;42.968;1.608;2023-01-28T04:21:23;97601.09;;;1.09;97.99
70254;BME280;57649;42.968;1.608;2023-01-28T04:23:49;97610.69;;;1.10;97.77
70254;BME280;57649;42.968;1.608;2023-01-28T04:26:14;97613.13;;;1.13;97.48
70254;BME280;57649;42.968;1.608;2023-01-28T04:28:40;97631.69;;;1.11;98.48
70254;BME280;57649;42.968;1.608;2023-01-28T04:31:05;97618.84;;;1.07;98.36
70254;BME280;57649;42.968;1.608;2023-01-28T04:33:31;97613.56;;;1.07;98.18
70254;BME280;57649;42.968;1.608;2023-01-28T04:35:56;97621.25;;;1.10;99.03
70254;BME280;57649;42.968;1.608;2023-01-28T04:38:22;97619.03;;;1.04;100.00
70254;BME280;57649;42.968;1.608;2023-01-28T04:40:51;97618.41;;;1.13;98.56
70254;BME280;57649;42.968;1.608;2023-01-28T04:43:17;97620.75;;;1.18;99.17
70254;BME280;57649;42.968;1.608;2023-01-28T04:45:47;97622.31;;;1.20;98.25
70254;BME280;57649;42.968;1.608;2023-01-28T04:48:13;97613.31;;;1.10;100.00
70254;BME280;57649;42.968;1.608;2023-01-28T04:50:39;97624.22;;;1.18;99.71
70254;BME280;57649;42.968;1.608;2023-01-28T04:53:04;97621.13;;;1.11;99.12
70254;BME280;57649;42.968;1.608;2023-01-28T04:55:30;97627.47;;;1.09;99.41
70254;BME280;57649;42.968;1.608;2023-01-28T04:57:55;97636.88;;;1.13;98.51
70254;BME280;57649;42.968;1.608;2023-01-28T05:00:21;97619.56;;;1.09;99.77
70254;BME280;57649;42.968;1.608;2023-01-28T05:02:46;97626.94;;;1.17;98.65
70254;BME280;57649;42.968;1.608;2023-01-28T05:05:12;97616.41;;;1.17;99.52
70254;BME280;57649;42.968;1.608;2023-01-28T05:07:37;97625.16;;;1.17;98.53
70254;BME280;57649;42.968;1.608;2023-01-28T05:10:03;97622.75;;;1.14;98.08
70254;BME280;57649;42.968;1.608;2023-01-28T05:12:29;97619.25;;;1.13;97.81
70254;BME280;57649;42.968;1.608;2023-01-28T05:14:57;97626.31;;;1.13;98.92
70254;BME280;57649;42.968;1.608;2023-01-28T05:17:25;97635.94;;;1.14;99.21
70254;BME280;57649;42.968;1.608;2023-01-28T05:19:50;97639.09;;;1.19;99.14
70254;BME280;57649;42.968;1.608;2023-01-28T05:22:16;97645.09;;;1.08;100.00
70254;BME280;57649;42.968;1.608;2023-01-28T05:24:41;97652.38;;;1.18;100.00
70254;BME280;57649;42.968;1.608;2023-01-28T05:27:07;97654.03;;;1.06;99.79
70254;BME280;57649;42.968;1.608;2023-01-28T05:29:32;97658.38;;;1.07;100.00
70254;BME280;57649;42.968;1.608;2023-01-28T05:31:58;97667.97;;;1.08;100.00
70254;BME280;57649;42.968;1.608;2023-01-28T05:34:23;97665.66;;;1.03;100.00
70254;BME280;57649;42.968;1.608;2023-01-28T05:36:49;97673.66;;;1.02;100.00
70254;BME280;57649;42.968;1.608;2023-01-28T05:39:14;97666.16;;;0.95;100.00
70254;BME280;57649;42.968;1.608;2023-01-28T05:41:39;97676.09;;;1.05;100.00
70254;BME280;57649;42.968;1.608;2023-01-28T05:44:05;97679.66;;;1.04;100.00
70254;BME280;57649;42.968;1.608;2023-01-28T05:46:30;97686.84;;;1.02;100.00
70254;BME280;57649;42.968;1.608;2023-01-28T05:48:56;97690.53;;;0.99;100.00
70254;BME280;57649;42.968;1.608;2023-01-28T05:51:21;97691.38;;;1.00;100.00
70254;BME280;57649;42.968;1.608;2023-01-28T05:53:46;97690.03;;;1.07;100.00
70254;BME280;57649;42.968;1.608;2023-01-28T05:56:12;97693.88;;;0.88;100.00
70254;BME280;57649;42.968;1.608;2023-01-28T05:58:37;97694.84;;;0.73;100.00
70254;BME280;57649;42.968;1.608;2023-01-28T06:01:03;97698.69;;;0.54;100.00
70254;BME280;57649;42.968;1.608;2023-01-28T06:03:28;97702.88;;;0.30;100.00
70254;BME280;57649;42.968;1.608;2023-01-28T06:05:54;97701.56;;;0.23;100.00
70254;BME280;57649;42.968;1.608;2023-01-28T06:08:19;97708.91;;;0.17;100.00
70254;BME280;57649;42.968;1.608;2023-01-28T06:10:45;97713.78;;;0.24;100.00
70254;BME280;57649;42.968;1.608;2023-01-28T06:13:10;97727.72;;;0.11;100.00
70254;BME280;57649;42.968;1.608;2023-01-28T06:15:36;97723.88;;;0.03;100.00
70254;BME280;57649;42.968;1.608;2023-01-28T06:18:01;97722.00;;;0.05;100.00
70254;BME280;57649;42.968;1.608;2023-01-28T06:20:27;97719.38;;;0.05;100.00
70254;BME280;57649;42.968;1.608;2023-01-28T06:22:52;97719.44;;;0.17;100.00
70254;BME280;57649;42.968;1.608;2023-01-28T06:25:18;97729.06;;;0.18;100.00
70254;BME280;57649;42.968;1.608;2023-01-28T06:27:44;97723.94;;;0.30;100.00
70254;BME280;57649;42.968;1.608;2023-01-28T06:30:11;97723.00;;;0.31;100.00
70254;BME280;57649;42.968;1.608;2023-01-28T06:32:36;97728.63;;;0.39;100.00
70254;BME280;57649;42.968;1.608;2023-01-28T06:35:02;97735.22;;;0.46;100.00
70254;BME280;57649;42.968;1.608;2023-01-28T06:37:28;97728.44;;;0.42;100.00
70254;BME280;57649;42.968;1.608;2023-01-28T06:39:53;97720.75;;;0.39;100.00
70254;BME280;57649;42.968;1.608;2023-01-28T06:42:19;97735.41;;;0.43;100.00
70254;BME280;57649;42.968;1.608;2023-01-28T06:44:44;97720.19;;;0.34;100.00
70254;BME280;57649;42.968;1.608;2023-01-28T06:47:09;97721.81;;;0.49;100.00
70254;BME280;57649;42.968;1.608;2023-01-28T06:49:36;97722.03;;;0.61;100.00
70254;BME280;57649;42.968;1.608;2023-01-28T06:52:01;97722.47;;;0.53;100.00
70254;BME280;57649;42.968;1.608;2023-01-28T06:54:27;97725.91;;;0.68;100.00
70254;BME280;57649;42.968;1.608;2023-01-28T06:56:52;97723.69;;;0.62;100.00
70254;BME280;57649;42.968;1.608;2023-01-28T06:59:18;97728.03;;;0.63;100.00
70254;BME280;57649;42.968;1.608;2023-01-28T07:01:43;97720.31;;;0.60;100.00
70254;BME280;57649;42.968;1.608;2023-01-28T07:04:09;97729.19;;;0.71;99.68
70254;BME280;57649;42.968;1.608;2023-01-28T07:06:35;97730.66;;;0.63;100.00
70254;BME280;57649;42.968;1.608;2023-01-28T07:09:00;97737.22;;;0.70;100.00
70254;BME280;57649;42.968;1.608;2023-01-28T07:11:26;97736.22;;;0.85;100.00
70254;BME280;57649;42.968;1.608;2023-01-28T07:13:52;97731.38;;;0.79;97.53
70254;BME280;57649;42.968;1.608;2023-01-28T07:16:17;97732.22;;;0.80;98.80
70254;BME280;57649;42.968;1.608;2023-01-28T07:18:43;97736.84;;;0.76;99.83
70254;BME280;57649;42.968;1.608;2023-01-28T07:21:08;97730.91;;;0.72;100.00
70254;BME280;57649;42.968;1.608;2023-01-28T07:23:34;97756.75;;;0.80;100.00
70254;BME280;57649;42.968;1.608;2023-01-28T07:26:00;97751.16;;;0.72;100.00
70254;BME280;57649;42.968;1.608;2023-01-28T07:28:26;97759.63;;;0.77;100.00
70254;BME280;57649;42.968;1.608;2023-01-28T07:30:51;97759.97;;;0.85;100.00
70254;BME280;57649;42.968;1.608;2023-01-28T07:33:17;97761.78;;;0.70;99.76
70254;BME280;57649;42.968;1.608;2023-01-28T07:35:43;97774.94;;;0.85;100.00
70254;BME280;57649;42.968;1.608;2023-01-28T07:38:09;97764.03;;;0.76;99.93
70254;BME280;57649;42.968;1.608;2023-01-28T07:40:34;97773.72;;;0.76;97.67
70254;BME280;57649;42.968;1.608;2023-01-28T07:42:59;97785.44;;;0.99;97.55
70254;BME280;57649;42.968;1.608;2023-01-28T07:45:25;97780.31;;;0.83;96.84
70254;BME280;57649;42.968;1.608;2023-01-28T07:47:58;97783.69;;;0.85;99.21
70254;BME280;57649;42.968;1.608;2023-01-28T07:50:25;97781.22;;;0.82;98.63
70254;BME280;57649;42.968;1.608;2023-01-28T07:52:51;97783.94;;;0.95;98.65
70254;BME280;57649;42.968;1.608;2023-01-28T07:55:16;97778.78;;;0.93;98.96
70254;BME280;57649;42.968;1.608;2023-01-28T07:57:56;97789.16;;;1.09;98.58
70254;BME280;57649;42.968;1.608;2023-01-28T08:00:23;97786.56;;;0.95;99.17
70254;BME280;57649;42.968;1.608;2023-01-28T08:02:49;97791.97;;;0.93;96.92
70254;BME280;57649;42.968;1.608;2023-01-28T08:05:19;97787.25;;;0.84;96.31
70254;BME280;57649;42.968;1.608;2023-01-28T08:07:46;97787.53;;;0.94;94.79
70254;BME280;57649;42.968;1.608;2023-01-28T08:10:16;97784.63;;;1.11;95.20
70254;BME280;57649;42.968;1.608;2023-01-28T08:12:56;97792.47;;;0.99;93.95
70254;BME280;57649;42.968;1.608;2023-01-28T08:15:23;97794.28;;;0.98;97.05
70254;BME280;57649;42.968;1.608;2023-01-28T08:17:48;97802.28;;;0.96;96.81
70254;BME280;57649;42.968;1.608;2023-01-28T08:20:14;97797.22;;;0.93;94.75
70254;BME280;57649;42.968;1.608;2023-01-28T08:22:40;97808.38;;;0.97;95.07
70254;BME280;57649;42.968;1.608;2023-01-28T08:25:05;97816.03;;;1.02;93.39
70254;BME280;57649;42.968;1.608;2023-01-28T08:27:31;97813.38;;;1.02;93.69
70254;BME280;57649;42.968;1.608;2023-01-28T08:29:56;97816.50;;;1.08;94.72
70254;BME280;57649;42.968;1.608;2023-01-28T08:32:22;97821.53;;;1.11;96.43
70254;BME280;57649;42.968;1.608;2023-01-28T08:34:47;97816.38;;;1.10;92.69
70254;BME280;57649;42.968;1.608;2023-01-28T08:37:12;97834.03;;;1.22;94.24
70254;BME280;57649;42.968;1.608;2023-01-28T08:39:38;97826.13;;;1.22;94.67
70254;BME280;57649;42.968;1.608;2023-01-28T08:42:05;97842.31;;;1.30;95.64
70254;BME280;57649;42.968;1.608;2023-01-28T08:44:31;97834.59;;;1.27;94.43
70254;BME280;57649;42.968;1.608;2023-01-28T08:46:56;97839.81;;;1.14;93.82
70254;BME280;57649;42.968;1.608;2023-01-28T08:49:22;97847.81;;;1.13;95.48
70254;BME280;57649;42.968;1.608;2023-01-28T08:51:47;97851.75;;;1.20;96.15
70254;BME280;57649;42.968;1.608;2023-01-28T08:54:13;97847.63;;;1.16;94.13
70254;BME280;57649;42.968;1.608;2023-01-28T08:56:38;97858.19;;;1.16;95.36
70254;BME280;57649;42.968;1.608;2023-01-28T08:59:07;97842.19;;;1.05;93.04
70254;BME280;57649;42.968;1.608;2023-01-28T09:01:32;97845.91;;;1.15;96.86
70254;BME280;57649;42.968;1.608;2023-01-28T09:03:58;97858.19;;;1.16;94.22
70254;BME280;57649;42.968;1.608;2023-01-28T09:06:23;97846.25;;;1.10;94.62
70254;BME280;57649;42.968;1.608;2023-01-28T09:08:49;97854.25;;;1.09;94.76
70254;BME280;57649;42.968;1.608;2023-01-28T09:11:14;97859.84;;;1.17;94.10
70254;BME280;57649;42.968;1.608;2023-01-28T09:13:40;97856.44;;;1.29;95.66
70254;BME280;57649;42.968;1.608;2023-01-28T09:16:05;97854.63;;;1.30;98.00
70254;BME280;57649;42.968;1.608;2023-01-28T09:18:31;97857.91;;;1.33;96.77
70254;BME280;57649;42.968;1.608;2023-01-28T09:20:56;97855.69;;;1.27;94.54
70254;BME280;57649;42.968;1.608;2023-01-28T09:23:22;97860.63;;;1.19;94.46
70254;BME280;57649;42.968;1.608;2023-01-28T09:25:48;97854.06;;;1.12;95.34
70254;BME280;57649;42.968;1.608;2023-01-28T09:28:13;97868.91;;;1.13;93.39
70254;BME280;57649;42.968;1.608;2023-01-28T09:30:39;97867.63;;;1.33;92.92
70254;BME280;57649;42.968;1.608;2023-01-28T09:33:05;97866.91;;;1.31;94.29
70254;BME280;57649;42.968;1.608;2023-01-28T09:35:32;97874.06;;;1.29;96.07
70254;BME280;57649;42.968;1.608;2023-01-28T09:37:58;97873.31;;;1.27;95.20
70254;BME280;57649;42.968;1.608;2023-01-28T09:40:41;97878.28;;;1.31;95.02
70254;BME280;57649;42.968;1.608;2023-01-28T09:45:57;97861.75;;;1.15;94.45
70254;BME280;57649;42.968;1.608;2023-01-28T09:48:33;97869.56;;;1.17;95.10
70254;BME280;57649;42.968;1.608;2023-01-28T09:51:02;97866.34;;;1.26;96.27
70254;BME280;57649;42.968;1.608;2023-01-28T09:53:36;97868.88;;;1.27;96.89
70254;BME280;57649;42.968;1.608;2023-01-28T09:56:12;97880.31;;;1.41;96.20
70254;BME280;57649;42.968;1.608;2023-01-28T09:58:40;97879.16;;;1.32;94.45
70254;BME280;57649;42.968;1.608;2023-01-28T10:01:39;97874.72;;;1.32;94.22
70254;BME280;57649;42.968;1.608;2023-01-28T10:15:49;97867.16;;;1.26;96.36
70254;BME280;57649;42.968;1.608;2023-01-28T10:18:25;97873.41;;;1.25;94.88
70254;BME280;57649;42.968;1.608;2023-01-28T10:20:59;97871.53;;;1.27;94.84
70254;BME280;57649;42.968;1.608;2023-01-28T10:23:38;97872.50;;;1.12;94.61
70254;BME280;57649;42.968;1.608;2023-01-28T10:26:23;97881.34;;;1.11;96.03
70254;BME280;57649;42.968;1.608;2023-01-28T10:28:53;97876.44;;;1.19;94.62
70254;BME280;57649;42.968;1.608;2023-01-28T10:31:21;97875.88;;;1.28;95.92
70254;BME280;57649;42.968;1.608;2023-01-28T10:33:47;97879.91;;;1.34;97.12
70254;BME280;57649;42.968;1.608;2023-01-28T10:36:13;97875.56;;;1.33;92.80
70254;BME280;57649;42.968;1.608;2023-01-28T10:38:39;97863.59;;;1.27;94.92
70254;BME280;57649;42.968;1.608;2023-01-28T10:41:04;97890.78;;;1.42;93.58
70254;BME280;57649;42.968;1.608;2023-01-28T10:43:36;97874.13;;;1.42;93.85
70254;BME280;57649;42.968;1.608;2023-01-28T10:46:05;97882.59;;;1.47;94.01
70254;BME280;57649;42.968;1.608;2023-01-28T10:48:33;97872.38;;;1.55;93.62
70254;BME280;57649;42.968;1.608;2023-01-28T10:51:02;97873.72;;;1.48;93.27
70254;BME280;57649;42.968;1.608;2023-01-28T10:53:43;97874.50;;;1.35;95.02
70254;BME280;57649;42.968;1.608;2023-01-28T10:56:16;97869.41;;;1.47;92.81
70254;BME280;57649;42.968;1.608;2023-01-28T10:59:05;97865.59;;;1.51;93.49
70254;BME280;57649;42.968;1.608;2023-01-28T11:01:46;97859.13;;;1.69;94.17
70254;BME280;57649;42.968;1.608;2023-01-28T11:06:50;97855.97;;;1.77;93.48
70254;BME280;57649;42.968;1.608;2023-01-28T11:09:24;97852.25;;;1.67;91.20
70254;BME280;57649;42.968;1.608;2023-01-28T11:11:50;97848.88;;;1.78;93.58
70254;BME280;57649;42.968;1.608;2023-01-28T11:14:21;97841.81;;;1.78;91.87
70254;BME280;57649;42.968;1.608;2023-01-28T11:16:48;97841.41;;;1.84;93.47
70254;BME280;57649;42.968;1.608;2023-01-28T11:19:14;97821.13;;;1.85;93.17
70254;BME280;57649;42.968;1.608;2023-01-28T11:21:48;97815.97;;;1.83;90.02
70254;BME280;57649;42.968;1.608;2023-01-28T11:24:20;97824.81;;;1.82;89.45
70254;BME280;57649;42.968;1.608;2023-01-28T11:26:52;97827.66;;;1.79;91.48
70254;BME280;57649;42.968;1.608;2023-01-28T11:31:47;97845.66;;;1.87;89.64
70254;BME280;57649;42.968;1.608;2023-01-28T11:34:16;97851.53;;;1.90;90.52
70254;BME280;57649;42.968;1.608;2023-01-28T11:36:50;97846.69;;;1.97;90.07
70254;BME280;57649;42.968;1.608;2023-01-28T11:39:20;97839.53;;;2.12;90.52
70254;BME280;57649;42.968;1.608;2023-01-28T11:41:47;97836.34;;;1.94;nan
70254;BME280;57649;42.968;1.608;2023-01-28T11:44:19;97834.66;;;1.93;89.55
70254;BME280;57649;42.968;1.608;2023-01-28T11:47:21;97838.34;;;1.90;89.31
70254;BME280;57649;42.968;1.608;2023-01-28T12:01:16;97806.53;;;1.79;93.44
70254;BME280;57649;42.968;1.608;2023-01-28T12:09:27;97802.53;;;1.73;92.91
70254;BME280;57649;42.968;1.608;2023-01-28T12:12:44;97798.94;;;1.62;91.43
70254;BME280;57649;42.968;1.608;2023-01-28T12:23:25;97785.72;;;1.49;94.33
70254;BME280;57649;42.968;1.608;2023-01-28T12:26:18;97777.34;;;1.42;92.99
70254;BME280;57649;42.968;1.608;2023-01-28T12:40:23;97765.09;;;1.28;94.84
70254;BME280;57649;42.968;1.608;2023-01-28T12:45:57;97758.66;;;1.32;96.20
70254;BME280;57649;42.968;1.608;2023-01-28T12:48:39;97757.31;;;1.40;96.20
70254;BME280;57649;42.968;1.608;2023-01-28T12:51:14;97762.53;;;1.27;95.50
70254;BME280;57649;42.968;1.608;2023-01-28T12:54:14;97760.22;;;1.35;95.97
70254;BME280;57649;42.968;1.608;2023-01-28T12:56:43;97753.53;;;1.17;95.73
70254;BME280;57649;42.968;1.608;2023-01-28T12:59:11;97747.75;;;1.24;96.48
70254;BME280;57649;42.968;1.608;2023-01-28T13:01:47;97753.03;;;1.24;96.41
70254;BME280;57649;42.968;1.608;2023-01-28T13:04:56;97735.06;;;1.17;96.20
70254;BME280;57649;42.968;1.608;2023-01-28T13:10:04;97737.81;;;1.15;96.61
70254;BME280;57649;42.968;1.608;2023-01-28T13:12:31;97725.63;;;1.27;96.95
70254;BME280;57649;42.968;1.608;2023-01-28T13:14:58;97729.94;;;1.28;94.79
70254;BME280;57649;42.968;1.608;2023-01-28T13:17:29;97723.91;;;1.26;96.60
70254;BME280;57649;42.968;1.608;2023-01-28T13:19:56;97726.38;;;1.42;96.46
70254;BME280;57649;42.968;1.608;2023-01-28T13:22:27;97732.94;;;1.49;95.46
70254;BME280;57649;42.968;1.608;2023-01-28T13:24:52;97737.22;;;1.37;94.40
70254;BME280;57649;42.968;1.608;2023-01-28T13:27:26;97738.84;;;1.40;95.44
70254;BME280;57649;42.968;1.608;2023-01-28T13:30:18;97737.84;;;1.28;95.37
70254;BME280;57649;42.968;1.608;2023-01-28T13:33:00;97741.13;;;1.31;96.76
70254;BME280;57649;42.968;1.608;2023-01-28T13:35:30;97742.09;;;1.30;94.27
70254;BME280;57649;42.968;1.608;2023-01-28T13:37:56;97749.28;;;1.41;95.62
70254;BME280;57649;42.968;1.608;2023-01-28T13:40:25;97756.63;;;1.23;95.40
70254;BME280;57649;42.968;1.608;2023-01-28T13:43:01;97754.09;;;1.22;96.59
70254;BME280;57649;42.968;1.608;2023-01-28T13:45:27;97757.78;;;1.19;96.10
70254;BME280;57649;42.968;1.608;2023-01-28T13:48:28;97752.38;;;1.21;96.63
70254;BME280;57649;42.968;1.608;2023-01-28T13:50:51;97755.88;;;1.21;95.83
70254;BME280;57649;42.968;1.608;2023-01-28T13:53:29;97768.72;;;1.13;95.28
70254;BME280;57649;42.968;1.608;2023-01-28T13:56:03;97769.16;;;1.20;95.56
70254;BME280;57649;42.968;1.608;2023-01-28T14:18:26;97778.59;;;1.37;92.82
70254;BME280;57649;42.968;1.608;2023-01-28T14:20:55;97767.31;;;1.34;94.26
70254;BME280;57649;42.968;1.608;2023-01-28T14:23:23;97753.75;;;1.26;93.63
70254;BME280;57649;42.968;1.608;2023-01-28T14:28:33;97774.59;;;1.44;94.90
70254;BME280;57649;42.968;1.608;2023-01-28T14:31:07;97773.34;;;1.49;93.63
70254;BME280;57649;42.968;1.608;2023-01-28T14:33:35;97778.41;;;1.40;91.86
70254;BME280;57649;42.968;1.608;2023-01-28T14:36:02;97798.16;;;1.47;92.52
70254;BME280;57649;42.968;1.608;2023-01-28T14:38:30;97793.19;;;1.55;93.97
70254;BME280;57649;42.968;1.608;2023-01-28T14:40:57;97799.72;;;1.49;91.94
70254;BME280;57649;42.968;1.608;2023-01-28T14:43:26;97781.34;;;1.48;92.43
70254;BME280;57649;42.968;1.608;2023-01-28T14:46:34;97790.75;;;1.52;91.84
70254;BME280;57649;42.968;1.608;2023-01-28T14:49:20;97799.22;;;1.57;90.94
70254;BME280;57649;42.968;1.608;2023-01-28T14:57:52;97807.56;;;1.51;90.64
70254;BME280;57649;42.968;1.608;2023-01-28T15:00:22;97809.88;;;1.56;92.20
70254;BME280;57649;42.968;1.608;2023-01-28T15:02:48;97812.84;;;1.51;91.62
70254;BME280;57649;42.968;1.608;2023-01-28T15:05:23;97816.22;;;1.53;92.22
70254;BME280;57649;42.968;1.608;2023-01-28T15:07:49;97813.66;;;1.51;91.68
70254;BME280;57649;42.968;1.608;2023-01-28T15:10:32;97810.09;;;1.52;92.41
70254;BME280;57649;42.968;1.608;2023-01-28T15:13:05;97810.41;;;1.61;91.03
70254;BME280;57649;42.968;1.608;2023-01-28T15:15:34;97820.03;;;1.62;92.15
70254;BME280;57649;42.968;1.608;2023-01-28T15:18:36;97823.50;;;1.62;92.48
70254;BME280;57649;42.968;1.608;2023-01-28T15:21:05;97820.13;;;1.60;89.65
70254;BME280;57649;42.968;1.608;2023-01-28T15:23:33;97818.66;;;1.56;89.52
70254;BME280;57649;42.968;1.608;2023-01-28T15:26:07;97823.84;;;1.58;92.18